Time;durP1;ratioP1;P1;durP2;ratioP2;P2;SDS_P1;SDS_P2;PMS_P1;PMS_P2;Temp;Humidity;BMP_temperature;BMP_pressure;BME280_temperature;BME280_humidity;BME280_pressure;Samples;Min_cycle;Max_cycle;Signal;HPM_P1;HPM_P2
2023/06/10 00:00:57;;;;;;;14.98;11.80;;;15.40;99.90;;;;;;7589402;19;20017;-78
2023/06/10 00:03:29;;;;;;;18.90;13.25;;;15.30;99.90;;;;;;7600893;19;20018;-76
2023/06/10 00:06:03;;;;;;;15.57;12.02;;;15.30;99.90;;;;;;7598936;19;20021;-78
2023/06/10 00:08:37;;;;;;;;;;;15.20;99.90;;;;;;7600590;19;20082;-73
2023/06/10 00:11:10;;;;;;;14.88;12.55;;;15.20;99.90;;;;;;7596776;19;20018;-77
2023/06/10 00:13:42;;;;;;;14.50;12.40;;;15.20;99.90;;;;;;7598128;19;20014;-74
2023/06/10 00:16:17;;;;;;;17.20;12.20;;;15.30;99.90;;;;;;7598584;19;20082;-76
2023/06/10 00:18:51;;;;;;;20.42;13.57;;;15.20;99.90;;;;;;7598165;19;20155;-77
2023/06/10 00:21:24;;;;;;;18.60;13.00;;;15.10;99.90;;;;;;7603337;19;20024;-75
2023/06/10 00:23:57;;;;;;;15.63;12.10;;;15.10;99.90;;;;;;7595359;19;20027;-75
2023/06/10 00:26:29;;;;;;;16.65;12.50;;;15.00;99.90;;;;;;7604990;19;20112;-78
2023/06/10 00:29:02;;;;;;;14.27;12.75;;;15.10;99.90;;;;;;7597628;19;20074;-75
2023/06/10 00:31:35;;;;;;;15.20;12.57;;;15.00;99.90;;;;;;7599590;19;20695;-78
2023/06/10 00:34:08;;;;;;;16.75;12.55;;;15.00;99.90;;;;;;7592169;19;20291;-78
2023/06/10 00:36:40;;;;;;;20.13;12.32;;;15.00;99.90;;;;;;7599445;19;20043;-75
2023/06/10 00:39:13;;;;;;;15.43;11.57;;;14.90;99.90;;;;;;7594295;19;20028;-75
2023/06/10 00:41:45;;;;;;;18.23;13.23;;;14.90;99.90;;;;;;7601672;19;20010;-74
2023/06/10 00:44:17;;;;;;;16.63;12.63;;;14.90;99.90;;;;;;7597054;19;20011;-74
2023/06/10 00:46:51;;;;;;;16.30;13.00;;;14.70;99.90;;;;;;7595304;19;20160;-73
2023/06/10 00:49:24;;;;;;;17.40;14.25;;;14.80;99.90;;;;;;7596036;19;20035;-76
2023/06/10 00:51:57;;;;;;;15.93;13.73;;;14.70;99.90;;;;;;7593778;19;20024;-76
2023/06/10 00:54:30;;;;;;;20.83;13.02;;;14.60;99.90;;;;;;7600252;19;20078;-78
2023/06/10 00:57:02;;;;;;;15.20;13.15;;;14.50;99.90;;;;;;7591696;19;20052;-76
2023/06/10 00:59:35;;;;;;;16.48;14.02;;;14.40;99.90;;;;;;7598761;19;20484;-77
2023/06/10 01:02:09;;;;;;;14.75;13.13;;;14.40;99.90;;;;;;7592069;19;21533;-76
2023/06/10 01:04:41;;;;;;;18.55;13.07;;;14.50;99.90;;;;;;7599284;19;20022;-75
2023/06/10 01:07:35;;;;;;;15.65;13.38;;;14.60;99.90;;;;;;7595974;19;20015;-77
2023/06/10 01:10:19;;;;;;;15.00;12.20;;;14.60;99.90;;;;;;7592609;19;20064;-76
2023/06/10 01:13:02;;;;;;;13.85;12.45;;;14.60;99.90;;;;;;7594102;19;20021;-76
2023/06/10 01:15:35;;;;;;;17.88;13.45;;;14.60;99.90;;;;;;7603297;19;20547;-75
2023/06/10 01:18:14;;;;;;;14.73;13.20;;;14.50;99.90;;;;;;7590783;19;20014;-78
2023/06/10 01:20:48;;;;;;;16.25;13.52;;;14.50;99.90;;;;;;7596157;19;20045;-77
2023/06/10 01:23:23;;;;;;;21.17;14.55;;;14.40;99.90;;;;;;7594833;19;20022;-78
2023/06/10 01:26:07;;;;;;;19.45;13.57;;;14.30;99.90;;;;;;7599217;19;20064;-77
2023/06/10 01:28:47;;;;;;;14.75;13.23;;;14.30;99.90;;;;;;7600839;19;20524;-78
2023/06/10 01:31:47;;;;;;;18.75;14.30;;;14.30;99.90;;;;;;7586408;19;20040;-78
2023/06/10 01:34:23;;;;;;;14.25;12.52;;;14.30;99.90;;;;;;7591465;19;20489;-78
2023/06/10 01:36:57;;;;;;;19.83;14.10;;;14.20;99.90;;;;;;7599295;19;20463;-78
2023/06/10 01:39:30;;;;;;;14.73;13.13;;;14.20;99.90;;;;;;7590505;19;20057;-77
2023/06/10 01:42:04;;;;;;;17.15;13.00;;;14.20;99.90;;;;;;7590844;19;20014;-76
2023/06/10 01:44:39;;;;;;;15.95;13.70;;;14.20;99.90;;;;;;7598466;19;20430;-76
2023/06/10 01:47:12;;;;;;;15.25;13.23;;;14.20;99.90;;;;;;7580925;19;20041;-76
2023/06/10 01:49:44;;;;;;;16.60;13.23;;;14.20;99.90;;;;;;7589517;19;20397;-77
2023/06/10 01:52:17;;;;;;;16.90;13.10;;;14.10;99.90;;;;;;7589668;19;20043;-77
2023/06/10 01:54:49;;;;;;;16.83;14.90;;;14.10;99.90;;;;;;7597535;19;20011;-77
2023/06/10 01:57:21;;;;;;;18.42;14.13;;;14.10;99.90;;;;;;7589923;19;21656;-77
2023/06/10 01:59:54;;;;;;;14.52;12.27;;;14.00;99.90;;;;;;7592365;19;20027;-75
2023/06/10 02:02:26;;;;;;;19.63;14.07;;;14.00;99.90;;;;;;7588555;19;20995;-77
2023/06/10 02:04:58;;;;;;;18.15;14.88;;;14.00;99.90;;;;;;7596729;19;20018;-76
2023/06/10 02:07:30;;;;;;;18.48;13.88;;;14.00;99.90;;;;;;7591809;19;20400;-76
2023/06/10 02:10:04;;;;;;;15.88;12.85;;;13.90;99.90;;;;;;7594423;19;20048;-76
2023/06/10 02:12:37;;;;;;;15.45;13.15;;;13.90;99.90;;;;;;7594389;19;20018;-76
2023/06/10 02:15:09;;;;;;;16.35;13.65;;;13.80;99.90;;;;;;7592803;19;20019;-78
2023/06/10 02:17:42;;;;;;;19.95;14.23;;;13.80;99.90;;;;;;7592754;19;20026;-76
2023/06/10 02:20:17;;;;;;;16.58;13.50;;;13.70;99.90;;;;;;7589833;19;20006;-77
2023/06/10 02:22:49;;;;;;;15.65;13.68;;;13.60;99.90;;;;;;7598282;19;20025;-75
2023/06/10 02:25:21;;;;;;;14.40;12.55;;;13.70;99.90;;;;;;7597103;19;20100;-77
2023/06/10 02:27:55;;;;;;;17.75;13.93;;;13.70;99.90;;;;;;7606940;19;20018;-78
2023/06/10 02:30:27;;;;;;;18.52;13.13;;;13.70;99.90;;;;;;7594494;19;20057;-77
2023/06/10 02:33:01;;;;;;;17.67;13.07;;;13.60;99.90;;;;;;7601083;19;20498;-77
2023/06/10 02:35:34;;;;;;;15.98;13.18;;;13.60;99.90;;;;;;7601279;19;20022;-77
2023/06/10 02:38:06;;;;;;;22.15;14.52;;;13.60;99.90;;;;;;7602546;19;20104;-78
2023/06/10 02:40:40;;;;;;;18.55;13.77;;;13.60;99.90;;;;;;7603680;19;20022;-77
2023/06/10 02:43:12;;;;;;;19.80;14.15;;;13.60;99.90;;;;;;7600646;19;20030;-77
2023/06/10 02:45:45;;;;;;;15.20;12.85;;;13.60;99.90;;;;;;7597137;19;20023;-76
2023/06/10 02:48:19;;;;;;;20.25;13.38;;;13.60;99.90;;;;;;7595425;19;20018;-78
2023/06/10 02:50:51;;;;;;;18.05;14.90;;;13.50;99.90;;;;;;7598173;19;20022;-75
2023/06/10 02:53:30;;;;;;;17.77;15.02;;;13.40;99.90;;;;;;7597555;19;20094;-78
2023/06/10 02:56:09;;;;;;;17.65;14.75;;;13.30;99.90;;;;;;7598412;19;20027;-76
2023/06/10 02:58:41;;;;;;;16.77;13.82;;;13.20;99.90;;;;;;7600466;19;20014;-76
2023/06/10 03:01:17;;;;;;;19.15;14.55;;;13.20;99.90;;;;;;7599812;19;20026;-78
2023/06/10 03:04:01;;;;;;;17.83;14.38;;;13.20;99.90;;;;;;7604448;19;20021;-78
2023/06/10 03:06:33;;;;;;;18.13;14.38;;;13.20;99.90;;;;;;7597627;19;20043;-77
2023/06/10 03:09:15;;;;;;;18.90;13.20;;;13.20;99.90;;;;;;7598818;19;21047;-76
2023/06/10 03:11:50;;;;;;;16.80;13.30;;;13.20;99.90;;;;;;7600270;19;20015;-76
2023/06/10 03:14:25;;;;;;;16.30;13.40;;;13.20;99.90;;;;;;7601380;19;20014;-76
2023/06/10 03:16:57;;;;;;;16.38;12.98;;;13.20;99.90;;;;;;7600518;19;20695;-76
2023/06/10 03:19:33;;;;;;;15.55;13.02;;;13.20;99.90;;;;;;7596489;19;20058;-76
2023/06/10 03:22:13;;;;;;;15.10;12.68;;;13.20;99.90;;;;;;7599147;19;20423;-75
2023/06/10 03:24:54;;;;;;;14.25;12.38;;;13.20;99.90;;;;;;7599026;19;21091;-79
2023/06/10 03:27:29;;;;;;;17.27;13.70;;;13.30;99.90;;;;;;7600048;19;20565;-76
2023/06/10 03:30:05;;;;;;;17.55;14.30;;;13.20;99.90;;;;;;7595633;19;20011;-76
2023/06/10 03:32:37;;;;;;;17.83;14.52;;;13.10;99.90;;;;;;7601611;19;21390;-74
2023/06/10 03:35:12;;;;;;;17.73;15.23;;;13.10;99.90;;;;;;7598674;19;20025;-79
2023/06/10 03:37:44;;;;;;;19.70;15.30;;;12.90;99.90;;;;;;7599642;19;20026;-77
2023/06/10 03:40:16;;;;;;;17.05;13.50;;;13.00;99.90;;;;;;7597169;19;20010;-78
2023/06/10 03:42:51;;;;;;;17.20;13.98;;;13.00;99.90;;;;;;7597719;19;20374;-78
2023/06/10 03:45:24;;;;;;;19.50;16.77;;;13.00;99.90;;;;;;7598542;19;20025;-78
2023/06/10 03:47:57;;;;;;;17.90;14.50;;;13.00;99.90;;;;;;7596848;19;20037;-75
2023/06/10 03:50:36;;;;;;;19.02;14.82;;;13.00;99.90;;;;;;7598869;19;20014;-78
2023/06/10 03:53:09;;;;;;;18.17;13.98;;;13.00;99.90;;;;;;7594478;19;20018;-75
2023/06/10 03:55:45;;;;;;;17.83;14.75;;;13.00;99.90;;;;;;7601762;19;20042;-78
2023/06/10 03:58:20;;;;;;;18.27;14.60;;;13.10;99.90;;;;;;7594772;19;20015;-78
2023/06/10 04:00:53;;;;;;;18.58;14.20;;;13.10;99.90;;;;;;7596228;19;20369;-77
2023/06/10 04:03:31;;;;;;;16.67;13.40;;;13.20;99.90;;;;;;7596587;19;20018;-78
2023/06/10 04:06:04;;;;;;;20.15;13.70;;;13.20;99.90;;;;;;7600651;19;20081;-78
2023/06/10 04:08:36;;;;;;;20.10;15.10;;;13.20;99.90;;;;;;7596284;19;20144;-75
2023/06/10 04:11:09;;;;;;;20.02;14.75;;;13.30;99.90;;;;;;7597211;19;20060;-76
2023/06/10 04:13:41;;;;;;;15.77;13.45;;;13.30;99.90;;;;;;7603910;19;20635;-76
2023/06/10 04:16:13;;;;;;;18.77;14.90;;;13.30;99.90;;;;;;7597365;19;20472;-76
2023/06/10 04:18:45;;;;;;;16.33;13.15;;;13.30;99.90;;;;;;7597990;19;20481;-75
2023/06/10 04:21:18;;;;;;;17.67;13.52;;;13.40;99.90;;;;;;7596574;19;20006;-76
2023/06/10 04:23:53;;;;;;;16.95;13.88;;;13.40;99.90;;;;;;7601726;19;20093;-76
2023/06/10 04:26:27;;;;;;;18.48;14.73;;;13.40;99.90;;;;;;7597490;19;21733;-76
2023/06/10 04:28:59;;;;;;;17.48;14.38;;;13.50;99.90;;;;;;7601854;19;20043;-76
2023/06/10 04:31:32;;;;;;;18.48;14.77;;;13.50;99.90;;;;;;7595580;19;20019;-76
2023/06/10 04:34:05;;;;;;;18.85;14.85;;;13.60;99.90;;;;;;7598942;19;20022;-76
2023/06/10 04:36:37;;;;;;;15.77;14.07;;;13.70;99.90;;;;;;7598164;19;20014;-76
2023/06/10 04:39:09;;;;;;;16.65;13.55;;;13.70;99.90;;;;;;7594858;19;20053;-74
2023/06/10 04:41:42;;;;;;;16.05;13.77;;;13.80;99.90;;;;;;7603819;19;20021;-76
2023/06/10 04:44:15;;;;;;;16.80;14.13;;;13.90;99.90;;;;;;7595426;19;20472;-76
2023/06/10 04:46:48;;;;;;;16.35;13.93;;;;;;;;;;7594984;19;20014;-76
2023/06/10 04:49:20;;;;;;;24.05;17.52;;;;;;;;;;7597565;19;20028;-77
2023/06/10 04:51:53;;;;;;;20.25;16.95;;;;;;;;;;7599924;19;20015;-79
2023/06/10 04:54:26;;;;;;;23.23;17.98;;;;;;;;;;7591317;19;20021;-75
2023/06/10 04:57:00;;;;;;;24.58;17.42;;;;;;;;;;7604245;19;21212;-76
2023/06/10 04:59:32;;;;;;;23.15;17.88;;;;;;;;;;7591398;19;20029;-78
2023/06/10 05:02:05;;;;;;;24.15;16.92;;;;;;;;;;7598947;19;20096;-74
2023/06/10 05:04:38;;;;;;;20.50;17.25;;;;;;;;;;7596654;19;20399;-75
2023/06/10 05:07:10;;;;;;;21.25;17.58;;;13.90;99.90;;;;;;7601962;19;20055;-75
2023/06/10 05:09:42;;;;;;;23.10;17.85;;;;;;;;;;7597022;19;20048;-77
2023/06/10 05:12:15;;;;;;;20.50;16.83;;;;;;;;;;7597477;19;20093;-74
2023/06/10 05:14:48;;;;;;;27.13;18.17;;;;;;;;;;7601317;19;20664;-78
2023/06/10 05:17:20;;;;;;;22.08;17.88;;;;;;;;;;7594091;19;20044;-76
2023/06/10 05:19:53;;;;;;;25.10;19.10;;;;;;;;;;7601219;19;20601;-75
2023/06/10 05:22:27;;;;;;;22.75;17.95;;;;;;;;;;7591681;19;20025;-77
2023/06/10 05:24:59;;;;;;;;;;;;;;;;;;7598771;19;20014;-76
2023/06/10 05:27:32;;;;;;;24.00;18.00;;;;;;;;;;7592599;19;20442;-77
2023/06/10 05:30:07;;;;;;;22.08;17.65;;;;;;;;;;7598856;19;20044;-78
2023/06/10 05:32:40;;;;;;;24.73;18.80;;;;;;;;;;7593853;19;20484;-75
2023/06/10 05:35:13;;;;;;;24.37;19.33;;;;;;;;;;7601018;19;20365;-75
2023/06/10 05:37:46;;;;;;;23.73;18.45;;;;;;;;;;7593306;19;20018;-78
2023/06/10 05:40:19;;;;;;;27.30;18.98;;;;;;;;;;7595417;19;20014;-78
2023/06/10 05:42:51;;;;;;;24.73;19.45;;;;;;;;;;7599344;19;20617;-78
2023/06/10 05:45:24;;;;;;;25.23;18.63;;;;;;;;;;7596988;19;20019;-78
2023/06/10 05:47:56;;;;;;;24.70;19.77;;;;;;;;;;7584062;19;20025;-77
2023/06/10 05:50:29;;;;;;;25.00;18.15;;;;;;;;;;7595675;19;20018;-77
2023/06/10 05:53:02;;;;;;;25.65;19.73;;;;;;;;;;7598029;19;21103;-77
2023/06/10 05:55:35;;;;;;;23.92;18.05;;;;;;;;;;7599319;19;20011;-75
2023/06/10 05:58:08;;;;;;;;;;;;;;;;;;7605879;19;20040;-77
2023/06/10 06:00:41;;;;;;;24.52;18.10;;;;;;;;;;7597795;19;19926;-76
2023/06/10 06:03:14;;;;;;;26.10;18.13;;;;;;;;;;7607285;19;20031;-75
2023/06/10 06:05:46;;;;;;;23.90;18.07;;;;;;;;;;7603816;19;20026;-74
2023/06/10 06:08:19;;;;;;;25.17;19.05;;;;;;;;;;7603260;19;20022;-77
2023/06/10 06:10:51;;;;;;;27.08;19.52;;;;;;;;;;7602213;19;20741;-78
2023/06/10 06:13:24;;;;;;;26.40;19.52;;;;;;;;;;7603649;19;20021;-75
2023/06/10 06:15:57;;;;;;;25.00;17.98;;;;;;;;;;7603027;19;20726;-77
2023/06/10 06:18:29;;;;;;;21.27;16.33;;;;;;;;;;7599464;19;20018;-77
2023/06/10 06:21:02;;;;;;;21.52;16.30;;;;;;;;;;7604665;19;20100;-76
2023/06/10 06:23:34;;;;;;;22.27;17.00;;;;;;;;;;7600826;19;20022;-76
2023/06/10 06:26:07;;;;;;;23.35;16.38;;;;;;;;;;7603831;19;20022;-77
2023/06/10 06:28:40;;;;;;;18.63;15.63;;;;;;;;;;7603599;19;20584;-78
2023/06/10 06:31:13;;;;;;;20.02;15.18;;;;;;;;;;7601009;19;20630;-77
2023/06/10 06:33:46;;;;;;;17.40;14.55;;;;;;;;;;7601123;19;20011;-77
2023/06/10 06:36:19;;;;;;;18.48;14.88;;;;;;;;;;7597615;19;20018;-76
2023/06/10 06:38:51;;;;;;;16.38;14.02;;;;;;;;;;7599024;19;21854;-76
2023/06/10 06:41:29;;;;;;;17.92;13.80;;;;;;;;;;7601740;19;20021;-76
2023/06/10 06:44:02;;;;;;;18.98;14.40;;;;;;;;;;7602239;19;21039;-77
2023/06/10 06:46:37;;;;;;;19.77;14.38;;;;;;;;;;7600766;19;20010;-76
2023/06/10 06:49:10;;;;;;;17.75;14.65;;;;;;;;;;7606206;19;20039;-76
2023/06/10 06:51:43;;;;;;;19.33;14.30;;;;;;;;;;7611392;19;21033;-76
2023/06/10 06:54:16;;;;;;;19.58;14.43;;;;;;;;;;7596403;19;20061;-76
2023/06/10 06:56:48;;;;;;;21.75;14.05;;;;;;;;;;7596626;19;21161;-76
2023/06/10 06:59:21;;;;;;;16.23;12.60;;;;;;;;;;7604235;19;20445;-76
2023/06/10 07:01:54;;;;;;;15.98;12.65;;;;;;;;;;7604170;19;20054;-76
2023/06/10 07:04:28;;;;;;;14.73;12.68;;;;;;;;;;7597514;19;20026;-76
2023/06/10 07:07:01;;;;;;;16.73;12.95;;;;;;;;;;7600002;19;20011;-77
2023/06/10 07:09:33;;;;;;;19.60;13.18;;;;;;;;;;7596858;19;20033;-77
2023/06/10 07:12:06;;;;;;;15.65;13.07;;;;;;;;;;7600304;19;20018;-76
2023/06/10 07:14:39;;;;;;;17.30;12.88;;;;;;;;;;7600503;19;20022;-74
2023/06/10 07:17:11;;;;;;;15.27;12.95;;;;;;;;;;7599246;19;20015;-74
2023/06/10 07:19:44;;;;;;;13.60;10.67;;;;;;;;;;7600456;19;20026;-74
2023/06/10 07:22:17;;;;;;;13.25;11.23;;;;;;;;;;7599664;19;20022;-74
2023/06/10 07:24:50;;;;;;;16.80;11.90;;;;;;;;;;7601566;19;20022;-74
2023/06/10 07:27:24;;;;;;;14.93;10.25;;;;;;;;;;7600559;19;20019;-76
2023/06/10 07:29:57;;;;;;;12.37;10.53;;;;;;;;;;7600992;19;20049;-74
2023/06/10 07:32:29;;;;;;;12.85;10.85;;;;;;;;;;7599707;19;20018;-74
2023/06/10 07:35:02;;;;;;;13.23;9.90;;;;;;;;;;7601663;19;20507;-75
2023/06/10 07:37:36;;;;;;;12.10;9.32;;;;;;;;;;7595888;19;20982;-76
2023/06/10 07:40:08;;;;;;;11.02;9.38;;;;;;;;;;7605599;19;20522;-77
2023/06/10 07:42:41;;;;;;;12.73;8.95;;;;;;;;;;7600002;19;20014;-76
2023/06/10 07:45:14;;;;;;;9.55;8.25;;;;;;;;;;7605815;19;20825;-76
2023/06/10 07:47:49;;;;;;;9.00;7.97;;;;;;;;;;7598883;19;20022;-77
2023/06/10 07:50:25;;;;;;;9.40;8.02;;;;;;;;;;7598505;19;20958;-76
2023/06/10 07:52:58;;;;;;;9.38;8.20;;;;;;;;;;7591222;19;20010;-76
2023/06/10 07:55:31;;;;;;;10.02;8.48;;;;;;;;;;7597562;19;20014;-76
2023/06/10 07:58:04;;;;;;;7.80;6.97;;;;;;;;;;7604085;19;20018;-77
2023/06/10 08:00:36;;;;;;;7.78;6.97;;;;;;;;;;7592624;19;20106;-74
2023/06/10 08:03:09;;;;;;;10.13;6.83;;;;;;;;;;7604364;19;20022;-74
2023/06/10 08:05:42;;;;;;;10.13;7.60;;;;;;;;;;7596603;19;20093;-75
2023/06/10 08:08:14;;;;;;;7.80;6.63;;;;;;;;;;7603395;19;20011;-74
2023/06/10 08:10:49;;;;;;;7.63;6.83;;;;;;;;;;7595559;19;21229;-74
2023/06/10 08:13:22;;;;;;;7.72;6.57;;;;;;;;;;7604337;19;20027;-74
2023/06/10 08:15:55;;;;;;;9.20;7.60;;;;;;;;;;7600727;19;20018;-74
2023/06/10 08:18:27;;;;;;;9.30;6.90;;;;;;;;;;7599585;19;20121;-73
2023/06/10 08:21:00;;;;;;;8.93;6.53;;;;;;;;;;7599495;19;20549;-75
2023/06/10 08:23:33;;;;;;;7.30;5.72;;;;;;;;;;7592701;19;20512;-74
2023/06/10 08:26:06;;;;;;;6.65;5.90;;;;;;;;;;7604747;19;20057;-77
2023/06/10 08:28:38;;;;;;;7.35;6.10;;;;;;;;;;7596860;19;20026;-76
2023/06/10 08:31:11;;;;;;;8.13;6.35;;;;;;;;;;7602381;19;20018;-74
2023/06/10 08:33:44;;;;;;;7.05;6.25;;;;;;;;;;7598653;19;20671;-74
2023/06/10 08:36:17;;;;;;;8.50;6.40;;;;;;;;;;7604922;19;20953;-75
2023/06/10 08:38:49;;;;;;;7.03;6.33;;;;;;;;;;7595845;19;20056;-75
2023/06/10 08:41:24;;;;;;;8.50;5.75;;;;;;;;;;7603676;19;21507;-75
2023/06/10 08:44:01;;;;;;;5.65;4.90;;;;;;;;;;7600506;19;20728;-75
2023/06/10 08:46:35;;;;;;;7.32;5.47;;;;;;;;;;7597962;19;20616;-76
2023/06/10 08:49:08;;;;;;;7.00;5.80;;;;;;;;;;7602235;19;20052;-75
2023/06/10 08:51:42;;;;;;;7.07;5.85;;;;;;;;;;7597965;19;20635;-75
2023/06/10 08:54:21;;;;;;;8.38;6.03;;;;;;;;;;7600752;19;20014;-74
2023/06/10 08:56:54;;;;;;;6.40;5.45;;;;;;;;;;7601350;19;20014;-76
2023/06/10 08:59:27;;;;;;;10.63;6.05;;;;;;;;;;7599278;19;20150;-76
2023/06/10 09:02:01;;;;;;;6.57;5.88;;;;;;;;;;7604044;19;20015;-76
2023/06/10 09:04:34;;;;;;;6.43;5.40;;;;;;;;;;7598939;19;20524;-75
2023/06/10 09:07:06;;;;;;;7.78;5.82;;;14.90;99.90;;;;;;7598599;19;20014;-75
2023/06/10 09:09:39;;;;;;;7.20;5.93;;;23.00;94.90;;;;;;7599938;19;20499;-75
2023/06/10 09:12:14;;;;;;;6.75;5.72;;;22.90;94.30;;;;;;7598247;19;20034;-76
2023/06/10 09:14:46;;;;;;;6.32;5.68;;;22.80;94.20;;;;;;7592749;19;20018;-75
2023/06/10 09:17:19;;;;;;;6.95;5.47;;;22.80;94.60;;;;;;7602677;19;20335;-75
2023/06/10 09:19:53;;;;;;;7.32;6.03;;;22.90;95.10;;;;;;7594694;19;20109;-74
2023/06/10 09:22:26;;;;;;;8.50;6.03;;;23.00;94.30;;;;;;7604575;19;21086;-73
2023/06/10 09:25:11;;;;;;;7.43;6.18;;;23.20;94.60;;;;;;7596188;19;20057;-74
2023/06/10 09:27:50;;;;;;;5.43;4.80;;;23.40;93.40;;;;;;7597552;19;20012;-74
2023/06/10 09:30:33;;;;;;;8.77;5.97;;;23.40;93.50;;;;;;7587969;19;20049;-75
2023/06/10 09:33:12;;;;;;;7.53;6.10;;;23.10;93.40;;;;;;7601913;19;20067;-75
2023/06/10 09:35:49;;;;;;;7.72;6.10;;;23.00;94.20;;;;;;7606054;19;20018;-75
2023/06/10 09:38:22;;;;;;;6.63;5.88;;;22.90;93.30;;;;;;7597849;19;20014;-74
2023/06/10 09:40:55;;;;;;;6.45;5.75;;;23.00;94.40;;;;;;7601755;19;20095;-74
2023/06/10 09:43:41;;;;;;;6.82;6.13;;;23.20;94.30;;;;;;7605577;19;20394;-75
2023/06/10 09:46:17;;;;;;;6.43;5.80;;;23.40;94.30;;;;;;7604514;19;20045;-75
2023/06/10 09:48:50;;;;;;;7.57;6.28;;;23.60;94.20;;;;;;7604812;19;20007;-74
2023/06/10 09:51:22;;;;;;;6.47;5.72;;;23.70;93.60;;;;;;7607632;19;20086;-73
2023/06/10 09:53:55;;;;;;;7.93;6.57;;;23.60;93.70;;;;;;7603892;19;21036;-75
2023/06/10 09:56:35;;;;;;;8.65;6.93;;;23.50;94.10;;;;;;7606563;19;20025;-74
2023/06/10 09:59:07;;;;;;;8.27;6.22;;;23.60;93.30;;;;;;7604944;19;20022;-75
2023/06/10 10:01:40;;;;;;;10.10;7.68;;;23.60;93.20;;;;;;7601783;19;20030;-74
2023/06/10 10:04:12;;;;;;;11.02;6.43;;;23.50;93.10;;;;;;7608885;19;20635;-75
2023/06/10 10:06:44;;;;;;;8.35;6.90;;;23.40;93.10;;;;;;7606962;19;20014;-74
2023/06/10 10:09:16;;;;;;;10.95;6.80;;;23.20;93.80;;;;;;7597281;19;20566;-73
2023/06/10 10:11:51;;;;;;;8.60;6.90;;;23.00;94.20;;;;;;7604291;19;21162;-74
2023/06/10 10:14:25;;;;;;;9.07;6.05;;;23.00;94.80;;;;;;7603040;19;20021;-74
2023/06/10 10:17:00;;;;;;;7.45;6.38;;;22.90;95.40;;;;;;7603701;19;20022;-74
2023/06/10 10:19:36;;;;;;;10.35;5.90;;;23.00;95.30;;;;;;7604428;19;20014;-76
2023/06/10 10:22:15;;;;;;;8.05;6.13;;;23.00;94.80;;;;;;7597682;19;20018;-74
2023/06/10 10:24:51;;;;;;;7.00;6.07;;;23.10;94.30;;;;;;7606761;19;20423;-78
2023/06/10 10:28:01;;;;;;;6.82;6.13;;;23.10;93.90;;;;;;7603647;19;20633;-77
2023/06/10 10:30:42;;;;;;;6.18;5.57;;;23.00;93.70;;;;;;7603119;19;20053;-76
2023/06/10 10:33:36;;;;;;;6.88;6.05;;;22.90;93.40;;;;;;7604539;19;20027;-74
2023/06/10 10:36:09;;;;;;;6.53;5.68;;;22.90;93.70;;;;;;7614716;19;20026;-74
2023/06/10 10:38:42;;;;;;;7.57;5.85;;;;;;;;;;7596016;19;20061;-76
2023/06/10 10:41:15;;;;;;;8.15;5.97;;;;;;;;;;7604743;19;20499;-75
2023/06/10 10:43:48;;;;;;;;;;;;;;;;;;7601301;19;20022;-74
2023/06/10 10:46:20;;;;;;;7.30;5.97;;;;;;;;;;7603094;19;19930;-76
2023/06/10 10:48:54;;;;;;;8.50;5.80;;;;;;;;;;7602963;19;20025;-75
2023/06/10 10:51:35;;;;;;;6.07;5.30;;;;;;;;;;7603814;19;20102;-75
2023/06/10 10:54:12;;;;;;;6.97;5.60;;;;;;;;;;7603472;19;20025;-77
2023/06/10 10:57:13;;;;;;;9.90;5.88;;;;;;;;;;7600121;19;20026;-77
2023/06/10 10:59:52;;;;;;;6.07;5.47;;;;;;;;;;7598499;19;20998;-76
2023/06/10 11:02:35;;;;;;;9.35;5.70;;;;;;;;;;7604691;19;20015;-76
2023/06/10 11:05:08;;;;;;;7.93;5.17;;;;;;;;;;7605483;19;20382;-76
2023/06/10 11:07:52;;;;;;;5.63;5.10;;;;;;;;;;7596826;19;20034;-76
2023/06/10 11:10:31;;;;;;;9.15;5.80;;;;;;;;;;7602450;19;20022;-77
2023/06/10 11:13:13;;;;;;;7.70;5.57;;;;;;;;;;7600864;19;20619;-74
2023/06/10 11:15:47;;;;;;;11.93;5.15;;;23.10;93.80;;;;;;7596619;19;20599;-75
2023/06/10 11:18:27;;;;;;;6.35;5.28;;;24.40;90.20;;;;;;7606527;19;20022;-77
2023/06/10 11:21:05;;;;;;;8.73;5.00;;;24.50;88.90;;;;;;7596154;19;20014;-76
2023/06/10 11:23:41;;;;;;;7.53;5.50;;;24.70;88.00;;;;;;7598851;19;20023;-75
2023/06/10 11:26:31;;;;;;;6.93;4.60;;;24.70;88.90;;;;;;7608134;19;20043;-77
2023/06/10 11:29:07;;;;;;;5.22;4.70;;;25.00;87.70;;;;;;7600349;19;20025;-76
2023/06/10 11:31:42;;;;;;;4.97;4.40;;;24.90;83.70;;;;;;7603865;19;20078;-74
2023/06/10 11:34:15;;;;;;;4.88;4.38;;;24.80;84.30;;;;;;7605551;19;20022;-76
2023/06/10 11:36:47;;;;;;;5.03;4.53;;;24.50;83.60;;;;;;7599277;19;21032;-75
2023/06/10 11:39:21;;;;;;;5.60;3.88;;;24.40;84.40;;;;;;7605424;19;20018;-76
2023/06/10 11:41:54;;;;;;;4.53;4.13;;;24.90;84.50;;;;;;7596086;19;20051;-75
2023/06/10 11:44:28;;;;;;;4.53;4.07;;;25.50;84.00;;;;;;7606585;19;20047;-77
2023/06/10 11:47:01;;;;;;;5.68;3.88;;;26.20;81.30;;;;;;7593863;19;20046;-77
2023/06/10 11:49:33;;;;;;;4.20;3.80;;;26.60;80.30;;;;;;7606042;19;20018;-76
2023/06/10 11:52:06;;;;;;;5.13;3.90;;;26.90;77.50;;;;;;7595810;19;20022;-76
2023/06/10 11:54:38;;;;;;;3.93;3.60;;;27.40;76.90;;;;;;7603056;19;20018;-76
2023/06/10 11:57:11;;;;;;;4.10;3.70;;;27.60;72.90;;;;;;7604596;19;20271;-77
2023/06/10 11:59:43;;;;;;;4.82;3.70;;;27.30;71.50;;;;;;7601024;19;20019;-75
2023/06/10 12:02:17;;;;;;;4.28;3.72;;;26.80;72.70;;;;;;7594272;19;20023;-75
2023/06/10 12:04:49;;;;;;;4.28;3.88;;;26.70;73.40;;;;;;7600990;19;20390;-76
2023/06/10 12:07:22;;;;;;;7.33;3.80;;;26.80;74.20;;;;;;7599278;19;20029;-77
2023/06/10 12:10:01;;;;;;;6.43;3.67;;;27.20;72.60;;;;;;7595133;19;20631;-77
2023/06/10 12:12:53;;;;;;;4.90;3.60;;;27.40;69.60;;;;;;7599868;19;20026;-75
2023/06/10 12:15:25;;;;;;;5.05;3.60;;;27.80;69.20;;;;;;7599222;19;20014;-76
2023/06/10 12:17:58;;;;;;;4.70;4.22;;;27.90;69.30;;;;;;7594256;19;20758;-75
2023/06/10 12:20:36;;;;;;;4.07;3.67;;;28.10;67.50;;;;;;7593424;19;20094;-76
2023/06/10 12:23:12;;;;;;;4.43;3.88;;;28.40;66.80;;;;;;7594113;19;20543;-75
2023/06/10 12:25:55;;;;;;;3.92;3.53;;;28.40;65.80;;;;;;7602264;19;20088;-75
2023/06/10 12:28:27;;;;;;;4.20;3.60;;;27.90;64.00;;;;;;7600623;19;20030;-77
2023/06/10 12:31:07;;;;;;;5.22;3.78;;;27.60;65.90;;;;;;7598118;19;20014;-77
2023/06/10 12:33:40;;;;;;;4.75;3.80;;;27.80;64.60;;;;;;7601725;19;20431;-76
2023/06/10 12:36:17;;;;;;;4.60;3.90;;;28.10;65.40;;;;;;7599528;19;20018;-75
2023/06/10 12:38:52;;;;;;;7.00;3.50;;;27.90;64.10;;;;;;7597808;19;20022;-76
2023/06/10 12:41:25;;;;;;;3.50;3.20;;;27.50;64.50;;;;;;7596188;19;20029;-77
2023/06/10 12:43:57;;;;;;;3.97;3.60;;;27.50;65.40;;;;;;7599987;19;20019;-77
2023/06/10 12:46:36;;;;;;;7.47;4.10;;;27.50;68.00;;;;;;7592573;19;20022;-75
2023/06/10 12:49:19;;;;;;;5.10;4.20;;;27.70;68.40;;;;;;7597543;19;20025;-76
2023/06/10 12:51:52;;;;;;;4.80;4.30;;;27.90;68.80;;;;;;7600562;19;20048;-76
2023/06/10 12:54:24;;;;;;;4.80;4.25;;;28.00;67.60;;;;;;7595616;19;20014;-75
2023/06/10 12:56:57;;;;;;;5.18;4.22;;;28.20;67.10;;;;;;7600532;19;20018;-75
2023/06/10 12:59:29;;;;;;;4.60;3.93;;;28.30;66.70;;;;;;7596581;19;20019;-76
2023/06/10 13:02:01;;;;;;;4.90;4.43;;;28.50;68.30;;;;;;7591674;19;20291;-75
2023/06/10 13:04:33;;;;;;;4.57;4.17;;;28.80;68.80;;;;;;7604612;19;20038;-77
2023/06/10 13:07:07;;;;;;;4.70;4.30;;;29.20;67.20;;;;;;7595484;19;20115;-77
2023/06/10 13:09:39;;;;;;;5.72;5.10;;;29.10;66.50;;;;;;7596991;19;20048;-75
2023/06/10 13:12:12;;;;;;;7.57;5.60;;;28.50;67.00;;;;;;7599233;19;20029;-76
2023/06/10 13:14:47;;;;;;;6.93;5.10;;;27.90;68.00;;;;;;7594193;19;20026;-77
2023/06/10 13:17:19;;;;;;;5.40;4.90;;;27.10;70.00;;;;;;7600741;19;21020;-77
2023/06/10 13:19:52;;;;;;;6.32;5.60;;;26.70;71.30;;;;;;7594068;19;20021;-76
2023/06/10 13:22:24;;;;;;;5.90;5.03;;;26.50;72.10;;;;;;7597727;19;20090;-76
2023/06/10 13:24:56;;;;;;;5.68;5.10;;;26.50;72.70;;;;;;7594295;19;20022;-76
2023/06/10 13:27:29;;;;;;;7.43;5.25;;;27.00;73.10;;;;;;7598988;19;20460;-75
2023/06/10 13:30:01;;;;;;;8.03;5.27;;;27.50;71.30;;;;;;7593782;19;20043;-76
2023/06/10 13:32:33;;;;;;;6.30;5.30;;;27.70;68.80;;;;;;7595447;19;20321;-74
2023/06/10 13:35:07;;;;;;;7.40;4.80;;;27.70;67.90;;;;;;7591695;19;20267;-75
2023/06/10 13:37:40;;;;;;;5.53;4.40;;;27.80;68.30;;;;;;7595132;19;20037;-75
2023/06/10 13:40:12;;;;;;;4.77;4.30;;;27.80;68.60;;;;;;7593493;19;21788;-76
2023/06/10 13:42:50;;;;;;;5.00;4.35;;;27.90;66.50;;;;;;7597327;19;20106;-74
2023/06/10 13:45:23;;;;;;;7.60;4.63;;;28.00;65.70;;;;;;7601279;19;20465;-76
2023/06/10 13:47:55;;;;;;;4.68;4.07;;;28.00;65.90;;;;;;7592431;19;20011;-74
2023/06/10 13:50:28;;;;;;;4.47;4.03;;;28.50;65.60;;;;;;7602868;19;20023;-78